Molly Patricia — WDH9743 — position and weather

sailwx.info

Track history (hours):
 
Tides and Currents Weather Stations Pressure Air Temp Water Temp Dewpoint Dewpoint Depression Visibility Wind Speed Wind Dir Waves Ship Positions

Molly Patricia

Owner: MOLLY PATRICIA, Houston, TX. More information available from US FCC via Universal Licensing System and Coast Guard Vessel Documentation Center.

Last reported at 2017-Sep-17 18:14 UTC. Time now 2017-Sep-25 15:23 UTC.
Position N 29°30' W 094°52'.

Length 29 m; draft 3 m.

Type: Towing. MMSI: 367671160.

Date/timePositionNaut miles runAvg speedWind from/ knotsBaromVisibWave heightAir tempDewpointWater temp
2017-Sep-17 18:14N 29°30' W 094°52'1 5.8
2017-Sep-17 18:01N 29°31' W 094°53'3 5.7
2017-Sep-17 17:30N 29°33' W 094°55'3 5.8
2017-Sep-17 17:01N 29°36' W 094°57'3 6.2
2017-Sep-17 16:31N 29°38' W 094°58'3 5.9
2017-Sep-17 16:00N 29°41' W 094°59'3 5.2
2017-Sep-17 15:30N 29°43' W 095°01'2 5.0
2017-Sep-17 15:00N 29°44' W 095°04'2 4.7
2017-Sep-17 14:30N 29°47' W 095°05'0 0.1
2017-Sep-17 14:00N 29°47' W 095°05'0 0.0
2017-Sep-17 13:27N 29°47' W 095°05'0 0.0
2017-Sep-17 12:50N 29°47' W 095°05'0 0.0
2017-Sep-17 12:29N 29°47' W 095°05'0 0.0
2017-Sep-17 11:56N 29°47' W 095°05'0 0.0
2017-Sep-17 11:30N 29°47' W 095°05'0 0.0
2017-Sep-17 10:41N 29°47' W 095°05'0 0.0
2017-Sep-17 10:21N 29°47' W 095°05'0 0.0
2017-Sep-17 09:59N 29°47' W 095°05'0 0.0
2017-Sep-17 09:27N 29°47' W 095°05'0 0.0
2017-Sep-17 08:57N 29°47' W 095°05'0 0.0
2017-Sep-17 08:29N 29°47' W 095°05'0 0.0
2017-Sep-17 07:55N 29°47' W 095°05'0 0.0
2017-Sep-17 07:30N 29°47' W 095°05'0 0.0
2017-Sep-17 07:00N 29°47' W 095°05'0 0.0
2017-Sep-17 06:11N 29°47' W 095°05'0 0.0
2017-Sep-17 05:43N 29°47' W 095°05'0 0.0
2017-Sep-17 05:11N 29°47' W 095°05'0 0.0
2017-Sep-17 04:58N 29°47' W 095°05'0 0.0
2017-Sep-17 04:28N 29°47' W 095°05'0 0.0
2017-Sep-17 00:04N 29°47' W 095°05'0 0.1
2017-Sep-16 23:58N 29°47' W 095°05'0 0.0
2017-Sep-16 23:25N 29°47' W 095°05'0 0.0
2017-Sep-16 22:44N 29°47' W 095°05'0 0.0
2017-Sep-16 22:27N 29°47' W 095°05'0 0.0
2017-Sep-16 21:59N 29°47' W 095°05'0 0.0
2017-Sep-16 21:30N 29°47' W 095°05'1 1.6
2017-Sep-16 20:56N 29°46' W 095°05'2 0.1
2017-Sep-16 06:09N 29°46' W 095°07'0 0.0
2017-Sep-16 06:00N 29°46' W 095°07'0 0.1
2017-Sep-16 04:21N 29°46' W 095°07'1 2.5
2017-Sep-16 03:52N 29°45' W 095°06'2 4.8
2017-Sep-16 03:29N 29°47' W 095°04'1 1.6
2017-Sep-16 03:00N 29°47' W 095°04'0 0.1
2017-Sep-16 02:11N 29°47' W 095°04'0 0.1
2017-Sep-16 01:57N 29°47' W 095°04'0 0.1
2017-Sep-15 23:18N 29°47' W 095°04'1 3.6
2017-Sep-15 23:01N 29°46' W 095°05'3 5.4
2017-Sep-15 22:30N 29°44' W 095°03'0 0.0
2017-Sep-15 21:59N 29°44' W 095°03'2 3.7
2017-Sep-15 21:30N 29°45' W 095°04'2 3.7
2017-Sep-15 20:59N 29°46' W 095°06'0 0.0
2017-Sep-15 20:22N 29°46' W 095°06'0 0.0
2017-Sep-15 19:55N 29°46' W 095°06'0 0.0
2017-Sep-15 19:26N 29°46' W 095°06'0 0.0
2017-Sep-15 18:57N 29°46' W 095°06'0 0.0
2017-Sep-15 18:30N 29°46' W 095°06'0 0.0
2017-Sep-15 16:29N 29°46' W 095°06'0 0.0
2017-Sep-15 04:22N 29°46' W 095°06'2 4.9
2017-Sep-15 04:00N 29°46' W 095°04'2 3.2
2017-Sep-15 03:24N 29°44' W 095°03'1 3.4
2017-Sep-15 03:00N 29°45' W 095°04'3 6.4
2017-Sep-15 02:29N 29°44' W 095°08'5 7.0
2017-Sep-15 01:48N 29°43' W 095°13'1 1.2
2017-Sep-15 00:42N 29°43' W 095°15'3 6.6
2017-Sep-15 00:12N 29°45' W 095°11'1 7.3
2017-Sep-15 00:00N 29°45' W 095°10'4 6.4
2017-Sep-14 23:28N 29°45' W 095°06'3 5.8
2017-Sep-14 23:00N 29°47' W 095°04'0 0.0
2017-Sep-14 21:34N 29°47' W 095°04'0 0.7
2017-Sep-14 21:29N 29°47' W 095°04'1 1.3
2017-Sep-14 20:51N 29°47' W 095°05'1 2.8
2017-Sep-14 20:28N 29°46' W 095°04'2 4.8
2017-Sep-14 20:00N 29°44' W 095°03'2 4.0
2017-Sep-14 19:31N 29°43' W 095°01'2 4.4
2017-Sep-14 19:01N 29°41' W 094°59'2 4.8
2017-Sep-14 18:31N 29°39' W 094°58'3 5.2
2017-Sep-14 18:01N 29°37' W 094°57'3 5.2
2017-Sep-14 17:30N 29°34' W 094°56'3 5.3
2017-Sep-14 17:01N 29°32' W 094°54'3 5.1
2017-Sep-14 16:30N 29°30' W 094°52'68 1.6
2017-Sep-12 20:44N 30°03' W 093°43'1 4.8
2017-Sep-12 20:30N 30°03' W 093°42'3 5.0
2017-Sep-12 20:00N 30°04' W 093°39'2 4.6
2017-Sep-12 19:30N 30°04' W 093°36'2 4.0
2017-Sep-12 19:01N 30°04' W 093°34'2 3.8
2017-Sep-12 18:31N 30°04' W 093°32'2 3.8
2017-Sep-12 18:01N 30°04' W 093°30'2 3.7
2017-Sep-12 17:31N 30°04' W 093°28'2 3.6
2017-Sep-12 17:00N 30°04' W 093°26'2 3.5
2017-Sep-12 16:31N 30°04' W 093°24'2 3.5
2017-Sep-12 16:00N 30°04' W 093°21'2 3.6
2017-Sep-12 15:31N 30°05' W 093°20'1 2.0
2017-Sep-12 15:00N 30°06' W 093°20'1 2.2
2017-Sep-12 14:31N 30°05' W 093°20'0 0.1
2017-Sep-12 14:01N 30°05' W 093°20'0 0.0
2017-Sep-12 06:19N 30°05' W 093°20'0 0.0
2017-Sep-12 06:00N 30°05' W 093°20'0 0.0
2017-Sep-12 05:29N 30°05' W 093°20'0 0.2
2017-Sep-12 05:01N 30°05' W 093°20'2 3.0
2017-Sep-12 04:31N 30°07' W 093°20'2 4.4
2017-Sep-12 04:00N 30°09' W 093°20'2 4.1
2017-Sep-12 03:30N 30°11' W 093°19'1 1.2
2017-Sep-12 03:01N 30°11' W 093°19'0 0.1
2017-Sep-12 02:30N 30°11' W 093°19'0 0.0
2017-Sep-12 02:01N 30°11' W 093°19'0 0.0
2017-Sep-12 01:30N 30°11' W 093°19'0 0.0
2017-Sep-12 01:01N 30°11' W 093°19'0 0.0
2017-Sep-12 00:30N 30°11' W 093°19'0 0.0
2017-Sep-12 00:00N 30°11' W 093°19'0 0.0
2017-Sep-11 23:30N 30°11' W 093°19'0 0.0
2017-Sep-11 23:01N 30°11' W 093°19'0 0.0
2017-Sep-11 22:30N 30°11' W 093°19'0 0.0
2017-Sep-11 22:00N 30°11' W 093°19'0 0.4
2017-Sep-11 21:30N 30°11' W 093°18'0 0.4
2017-Sep-11 21:00N 30°11' W 093°19'0 0.0
2017-Sep-11 20:30N 30°11' W 093°19'0 0.0
2017-Sep-11 20:01N 30°11' W 093°19'0 0.0
2017-Sep-11 19:31N 30°11' W 093°19'0 0.0
2017-Sep-11 19:00N 30°11' W 093°19'0 0.0
2017-Sep-11 18:30N 30°11' W 093°19'0 0.0
2017-Sep-11 18:01N 30°11' W 093°19'0 0.0
2017-Sep-11 17:30N 30°11' W 093°19'0 0.0
2017-Sep-11 17:01N 30°11' W 093°19'0 0.0
2017-Sep-11 16:31N 30°11' W 093°19'0 0.0
2017-Sep-11 16:01N 30°11' W 093°19'0 0.0
2017-Sep-11 15:31N 30°11' W 093°19'0 0.0
2017-Sep-11 14:52N 30°11' W 093°19'0 0.0
2017-Sep-11 14:30N 30°11' W 093°19'0 0.0
2017-Sep-11 14:00N 30°11' W 093°19'0 0.0
2017-Sep-11 13:28N 30°11' W 093°19'0 0.0
2017-Sep-11 12:01N 30°11' W 093°19'0 0.0
2017-Sep-11 12:00N 30°11' W 093°19'0 0.0
2017-Sep-11 11:28N 30°11' W 093°19'0 0.0
2017-Sep-11 11:00N 30°11' W 093°19'0 0.0
2017-Sep-11 10:30N 30°11' W 093°19'0 0.0
2017-Sep-11 09:57N 30°11' W 093°19'0 0.0
2017-Sep-11 09:31N 30°11' W 093°19'0 0.0
2017-Sep-11 09:01N 30°11' W 093°19'0 0.0
2017-Sep-11 08:28N 30°11' W 093°19'0 0.0
2017-Sep-11 08:00N 30°11' W 093°19'0 0.0
2017-Sep-11 07:29N 30°11' W 093°19'0 0.0
2017-Sep-11 06:37N 30°11' W 093°19'0 0.0
2017-Sep-11 06:19N 30°11' W 093°19'0 0.0
2017-Sep-11 05:56N 30°11' W 093°19'0 0.0
2017-Sep-11 05:29N 30°11' W 093°19'0 0.0
2017-Sep-11 05:01N 30°11' W 093°19'0 0.0
2017-Sep-11 04:28N 30°11' W 093°19'0 0.0
2017-Sep-11 04:00N 30°11' W 093°19'0 0.0
2017-Sep-11 03:30N 30°11' W 093°19'0 0.0
2017-Sep-11 02:55N 30°11' W 093°19'0 0.0
2017-Sep-11 02:31N 30°11' W 093°19'0 0.0
2017-Sep-11 01:57N 30°11' W 093°19'0 0.0
2017-Sep-11 01:31N 30°11' W 093°19'0 0.0
2017-Sep-11 01:00N 30°11' W 093°19'0 0.0
2017-Sep-11 00:30N 30°11' W 093°19'0 0.0
2017-Sep-11 00:01N 30°11' W 093°19'0 0.0
2017-Sep-10 23:30N 30°11' W 093°19'0 0.0
2017-Sep-10 23:01N 30°11' W 093°19'0 0.0
2017-Sep-10 22:30N 30°11' W 093°19'0 0.8
2017-Sep-10 22:01N 30°11' W 093°19'2 4.4
2017-Sep-10 21:31N 30°09' W 093°20'2 4.8
2017-Sep-10 21:01N 30°06' W 093°20'2 4.6
2017-Sep-10 20:31N 30°04' W 093°21'0 0.0
2017-Sep-10 20:00N 30°04' W 093°21'0 0.0
2017-Sep-10 19:30N 30°04' W 093°21'0 0.0
2017-Sep-10 19:00N 30°04' W 093°21'0 0.0
2017-Sep-10 18:31N 30°04' W 093°21'0 0.0
2017-Sep-10 18:01N 30°04' W 093°21'0 0.0
2017-Sep-10 17:30N 30°04' W 093°21'0 0.0
2017-Sep-10 17:01N 30°04' W 093°21'0 0.0
2017-Sep-10 16:31N 30°04' W 093°21'0 0.0
2017-Sep-10 16:00N 30°04' W 093°21'0 0.0
2017-Sep-10 15:30N 30°04' W 093°21'0 0.0
2017-Sep-10 15:00N 30°04' W 093°21'0 0.1
2017-Sep-10 14:01N 30°04' W 093°21'2 2.0
2017-Sep-10 12:50N 30°06' W 093°19'0 0.2
2017-Sep-10 12:30N 30°06' W 093°19'0 0.1
2017-Sep-10 11:57N 30°06' W 093°19'3 1.7
2017-Sep-10 10:17N 30°04' W 093°16'0 0.1
2017-Sep-10 10:01N 30°04' W 093°16'0 0.0
2017-Sep-10 09:30N 30°04' W 093°16'0 0.0
2017-Sep-10 09:00N 30°04' W 093°16'0 0.5
2017-Sep-10 08:30N 30°04' W 093°16'2 3.0
2017-Sep-10 07:58N 30°02' W 093°16'1 2.7
2017-Sep-10 07:30N 30°02' W 093°15'2 4.2
2017-Sep-10 07:00N 29°60' W 093°13'2 4.9
2017-Sep-10 06:30N 29°58' W 093°11'2 4.0
2017-Sep-10 06:00N 29°57' W 093°10'2 4.1
2017-Sep-10 05:29N 29°56' W 093°07'2 4.6
2017-Sep-10 05:00N 29°56' W 093°05'3 4.8
2017-Sep-10 04:28N 29°56' W 093°02'36 2.4
2017-Sep-09 13:02N 29°51' W 092°20'0 4.3
2017-Sep-09 13:00N 29°51' W 092°20'0 0.1
2017-Sep-09 12:30N 29°51' W 092°20'1 1.3
2017-Sep-09 12:01N 29°50' W 092°19'2 3.7
2017-Sep-09 11:30N 29°49' W 092°18'2 3.9
2017-Sep-09 10:59N 29°48' W 092°16'2 4.1
2017-Sep-09 10:30N 29°48' W 092°13'2 3.3
2017-Sep-09 09:59N 29°47' W 092°12'2 3.4
2017-Sep-09 09:30N 29°47' W 092°10'2 4.1
2017-Sep-09 08:59N 29°47' W 092°07'2 3.4
2017-Sep-09 08:30N 29°48' W 092°06'2 4.4
2017-Sep-09 07:59N 29°49' W 092°03'2 4.4
2017-Sep-09 07:31N 29°49' W 092°01'56 4.0
2017-Sep-08 17:18N 29°36' W 090°58'2 4.3
2017-Sep-08 16:53N 29°34' W 090°57'2 4.7
2017-Sep-08 16:27N 29°33' W 090°55'2 4.5
2017-Sep-08 15:57N 29°32' W 090°52'2 4.5
2017-Sep-08 15:30N 29°32' W 090°50'2 4.7
2017-Sep-08 15:00N 29°32' W 090°47'2 4.0
2017-Sep-08 14:30N 29°33' W 090°45'2 4.0
2017-Sep-08 14:01N 29°34' W 090°43'2 4.2
2017-Sep-08 13:30N 29°36' W 090°43'1 2.9
2017-Sep-08 13:01N 29°36' W 090°41'2 4.6
2017-Sep-08 12:31N 29°35' W 090°39'2 4.5
2017-Sep-08 12:00N 29°35' W 090°36'2 4.5
2017-Sep-08 11:30N 29°34' W 090°34'2 4.6
2017-Sep-08 11:00N 29°34' W 090°31'2 4.8
2017-Sep-08 10:30N 29°34' W 090°28'2 4.7
2017-Sep-08 10:00N 29°33' W 090°26'2 3.1
2017-Sep-08 09:30N 29°33' W 090°24'3 2.9
2017-Sep-08 08:27N 29°36' W 090°22'  
Track history (hours):
 
Tides and Currents Weather Stations Pressure Air Temp Water Temp Dewpoint Dewpoint Depression Visibility Wind Speed Wind Dir Waves Ship Positions

Molly Patricia

Owner: MOLLY PATRICIA, Houston, TX. More information available from US FCC via Universal Licensing System and Coast Guard Vessel Documentation Center.

Last reported at 2017-Sep-17 18:14 UTC. Time now 2017-Sep-25 15:23 UTC.
Position N 29°30' W 094°52'.

Length 29 m; draft 3 m.

Type: Towing. MMSI: 367671160.

Date/timePositionNaut miles runAvg speedWind from/ knotsBaromVisibWave heightAir tempDewpointWater temp
2017-Sep-17 18:14N 29°30' W 094°52'1 5.8
2017-Sep-17 18:01N 29°31' W 094°53'3 5.7
2017-Sep-17 17:30N 29°33' W 094°55'3 5.8
2017-Sep-17 17:01N 29°36' W 094°57'3 6.2
2017-Sep-17 16:31N 29°38' W 094°58'3 5.9
2017-Sep-17 16:00N 29°41' W 094°59'3 5.2
2017-Sep-17 15:30N 29°43' W 095°01'2 5.0
2017-Sep-17 15:00N 29°44' W 095°04'2 4.7
2017-Sep-17 14:30N 29°47' W 095°05'0 0.1
2017-Sep-17 14:00N 29°47' W 095°05'0 0.0
2017-Sep-17 13:27N 29°47' W 095°05'0 0.0
2017-Sep-17 12:50N 29°47' W 095°05'0 0.0
2017-Sep-17 12:29N 29°47' W 095°05'0 0.0
2017-Sep-17 11:56N 29°47' W 095°05'0 0.0
2017-Sep-17 11:30N 29°47' W 095°05'0 0.0
2017-Sep-17 10:41N 29°47' W 095°05'0 0.0
2017-Sep-17 10:21N 29°47' W 095°05'0 0.0
2017-Sep-17 09:59N 29°47' W 095°05'0 0.0
2017-Sep-17 09:27N 29°47' W 095°05'0 0.0
2017-Sep-17 08:57N 29°47' W 095°05'0 0.0
2017-Sep-17 08:29N 29°47' W 095°05'0 0.0
2017-Sep-17 07:55N 29°47' W 095°05'0 0.0
2017-Sep-17 07:30N 29°47' W 095°05'0 0.0
2017-Sep-17 07:00N 29°47' W 095°05'0 0.0
2017-Sep-17 06:11N 29°47' W 095°05'0 0.0
2017-Sep-17 05:43N 29°47' W 095°05'0 0.0
2017-Sep-17 05:11N 29°47' W 095°05'0 0.0
2017-Sep-17 04:58N 29°47' W 095°05'0 0.0
2017-Sep-17 04:28N 29°47' W 095°05'0 0.0
2017-Sep-17 00:04N 29°47' W 095°05'0 0.1
2017-Sep-16 23:58N 29°47' W 095°05'0 0.0
2017-Sep-16 23:25N 29°47' W 095°05'0 0.0
2017-Sep-16 22:44N 29°47' W 095°05'0 0.0
2017-Sep-16 22:27N 29°47' W 095°05'0 0.0
2017-Sep-16 21:59N 29°47' W 095°05'0 0.0
2017-Sep-16 21:30N 29°47' W 095°05'1 1.6
2017-Sep-16 20:56N 29°46' W 095°05'2 0.1
2017-Sep-16 06:09N 29°46' W 095°07'0 0.0
2017-Sep-16 06:00N 29°46' W 095°07'0 0.1
2017-Sep-16 04:21N 29°46' W 095°07'1 2.5
2017-Sep-16 03:52N 29°45' W 095°06'2 4.8
2017-Sep-16 03:29N 29°47' W 095°04'1 1.6
2017-Sep-16 03:00N 29°47' W 095°04'0 0.1
2017-Sep-16 02:11N 29°47' W 095°04'0 0.1
2017-Sep-16 01:57N 29°47' W 095°04'0 0.1
2017-Sep-15 23:18N 29°47' W 095°04'1 3.6
2017-Sep-15 23:01N 29°46' W 095°05'3 5.4
2017-Sep-15 22:30N 29°44' W 095°03'0 0.0
2017-Sep-15 21:59N 29°44' W 095°03'2 3.7
2017-Sep-15 21:30N 29°45' W 095°04'2 3.7
2017-Sep-15 20:59N 29°46' W 095°06'0 0.0
2017-Sep-15 20:22N 29°46' W 095°06'0 0.0
2017-Sep-15 19:55N 29°46' W 095°06'0 0.0
2017-Sep-15 19:26N 29°46' W 095°06'0 0.0
2017-Sep-15 18:57N 29°46' W 095°06'0 0.0
2017-Sep-15 18:30N 29°46' W 095°06'0 0.0
2017-Sep-15 16:29N 29°46' W 095°06'0 0.0
2017-Sep-15 04:22N 29°46' W 095°06'2 4.9
2017-Sep-15 04:00N 29°46' W 095°04'2 3.2
2017-Sep-15 03:24N 29°44' W 095°03'1 3.4
2017-Sep-15 03:00N 29°45' W 095°04'3 6.4
2017-Sep-15 02:29N 29°44' W 095°08'5 7.0
2017-Sep-15 01:48N 29°43' W 095°13'1 1.2
2017-Sep-15 00:42N 29°43' W 095°15'3 6.6
2017-Sep-15 00:12N 29°45' W 095°11'1 7.3
2017-Sep-15 00:00N 29°45' W 095°10'4 6.4
2017-Sep-14 23:28N 29°45' W 095°06'3 5.8
2017-Sep-14 23:00N 29°47' W 095°04'0 0.0
2017-Sep-14 21:34N 29°47' W 095°04'0 0.7
2017-Sep-14 21:29N 29°47' W 095°04'1 1.3
2017-Sep-14 20:51N 29°47' W 095°05'1 2.8
2017-Sep-14 20:28N 29°46' W 095°04'2 4.8
2017-Sep-14 20:00N 29°44' W 095°03'2 4.0
2017-Sep-14 19:31N 29°43' W 095°01'2 4.4
2017-Sep-14 19:01N 29°41' W 094°59'2 4.8
2017-Sep-14 18:31N 29°39' W 094°58'3 5.2
2017-Sep-14 18:01N 29°37' W 094°57'3 5.2
2017-Sep-14 17:30N 29°34' W 094°56'3 5.3
2017-Sep-14 17:01N 29°32' W 094°54'3 5.1
2017-Sep-14 16:30N 29°30' W 094°52'68 1.6
2017-Sep-12 20:44N 30°03' W 093°43'1 4.8
2017-Sep-12 20:30N 30°03' W 093°42'3 5.0
2017-Sep-12 20:00N 30°04' W 093°39'2 4.6
2017-Sep-12 19:30N 30°04' W 093°36'2 4.0
2017-Sep-12 19:01N 30°04' W 093°34'2 3.8
2017-Sep-12 18:31N 30°04' W 093°32'2 3.8
2017-Sep-12 18:01N 30°04' W 093°30'2 3.7
2017-Sep-12 17:31N 30°04' W 093°28'2 3.6
2017-Sep-12 17:00N 30°04' W 093°26'2 3.5
2017-Sep-12 16:31N 30°04' W 093°24'2 3.5
2017-Sep-12 16:00N 30°04' W 093°21'2 3.6
2017-Sep-12 15:31N 30°05' W 093°20'1 2.0
2017-Sep-12 15:00N 30°06' W 093°20'1 2.2
2017-Sep-12 14:31N 30°05' W 093°20'0 0.1
2017-Sep-12 14:01N 30°05' W 093°20'0 0.0
2017-Sep-12 06:19N 30°05' W 093°20'0 0.0
2017-Sep-12 06:00N 30°05' W 093°20'0 0.0
2017-Sep-12 05:29N 30°05' W 093°20'0 0.2
2017-Sep-12 05:01N 30°05' W 093°20'2 3.0
2017-Sep-12 04:31N 30°07' W 093°20'2 4.4
2017-Sep-12 04:00N 30°09' W 093°20'2 4.1
2017-Sep-12 03:30N 30°11' W 093°19'1 1.2
2017-Sep-12 03:01N 30°11' W 093°19'0 0.1
2017-Sep-12 02:30N 30°11' W 093°19'0 0.0
2017-Sep-12 02:01N 30°11' W 093°19'0 0.0
2017-Sep-12 01:30N 30°11' W 093°19'0 0.0
2017-Sep-12 01:01N 30°11' W 093°19'0 0.0
2017-Sep-12 00:30N 30°11' W 093°19'0 0.0
2017-Sep-12 00:00N 30°11' W 093°19'0 0.0
2017-Sep-11 23:30N 30°11' W 093°19'0 0.0
2017-Sep-11 23:01N 30°11' W 093°19'0 0.0
2017-Sep-11 22:30N 30°11' W 093°19'0 0.0
2017-Sep-11 22:00N 30°11' W 093°19'0 0.4
2017-Sep-11 21:30N 30°11' W 093°18'0 0.4
2017-Sep-11 21:00N 30°11' W 093°19'0 0.0
2017-Sep-11 20:30N 30°11' W 093°19'0 0.0
2017-Sep-11 20:01N 30°11' W 093°19'0 0.0
2017-Sep-11 19:31N 30°11' W 093°19'0 0.0
2017-Sep-11 19:00N 30°11' W 093°19'0 0.0
2017-Sep-11 18:30N 30°11' W 093°19'0 0.0
2017-Sep-11 18:01N 30°11' W 093°19'0 0.0
2017-Sep-11 17:30N 30°11' W 093°19'0 0.0
2017-Sep-11 17:01N 30°11' W 093°19'0 0.0
2017-Sep-11 16:31N 30°11' W 093°19'0 0.0
2017-Sep-11 16:01N 30°11' W 093°19'0 0.0
2017-Sep-11 15:31N 30°11' W 093°19'0 0.0
2017-Sep-11 14:52N 30°11' W 093°19'0 0.0
2017-Sep-11 14:30N 30°11' W 093°19'0 0.0
2017-Sep-11 14:00N 30°11' W 093°19'0 0.0
2017-Sep-11 13:28N 30°11' W 093°19'0 0.0
2017-Sep-11 12:01N 30°11' W 093°19'0 0.0
2017-Sep-11 12:00N 30°11' W 093°19'0 0.0
2017-Sep-11 11:28N 30°11' W 093°19'0 0.0
2017-Sep-11 11:00N 30°11' W 093°19'0 0.0
2017-Sep-11 10:30N 30°11' W 093°19'0 0.0
2017-Sep-11 09:57N 30°11' W 093°19'0 0.0
2017-Sep-11 09:31N 30°11' W 093°19'0 0.0
2017-Sep-11 09:01N 30°11' W 093°19'0 0.0
2017-Sep-11 08:28N 30°11' W 093°19'0 0.0
2017-Sep-11 08:00N 30°11' W 093°19'0 0.0
2017-Sep-11 07:29N 30°11' W 093°19'0 0.0
2017-Sep-11 06:37N 30°11' W 093°19'0 0.0
2017-Sep-11 06:19N 30°11' W 093°19'0 0.0
2017-Sep-11 05:56N 30°11' W 093°19'0 0.0
2017-Sep-11 05:29N 30°11' W 093°19'0 0.0
2017-Sep-11 05:01N 30°11' W 093°19'0 0.0
2017-Sep-11 04:28N 30°11' W 093°19'0 0.0
2017-Sep-11 04:00N 30°11' W 093°19'0 0.0
2017-Sep-11 03:30N 30°11' W 093°19'0 0.0
2017-Sep-11 02:55N 30°11' W 093°19'0 0.0
2017-Sep-11 02:31N 30°11' W 093°19'0 0.0
2017-Sep-11 01:57N 30°11' W 093°19'0 0.0
2017-Sep-11 01:31N 30°11' W 093°19'0 0.0
2017-Sep-11 01:00N 30°11' W 093°19'0 0.0
2017-Sep-11 00:30N 30°11' W 093°19'0 0.0
2017-Sep-11 00:01N 30°11' W 093°19'0 0.0
2017-Sep-10 23:30N 30°11' W 093°19'0 0.0
2017-Sep-10 23:01N 30°11' W 093°19'0 0.0
2017-Sep-10 22:30N 30°11' W 093°19'0 0.8
2017-Sep-10 22:01N 30°11' W 093°19'2 4.4
2017-Sep-10 21:31N 30°09' W 093°20'2 4.8
2017-Sep-10 21:01N 30°06' W 093°20'2 4.6
2017-Sep-10 20:31N 30°04' W 093°21'0 0.0
2017-Sep-10 20:00N 30°04' W 093°21'0 0.0
2017-Sep-10 19:30N 30°04' W 093°21'0 0.0
2017-Sep-10 19:00N 30°04' W 093°21'0 0.0
2017-Sep-10 18:31N 30°04' W 093°21'0 0.0
2017-Sep-10 18:01N 30°04' W 093°21'0 0.0
2017-Sep-10 17:30N 30°04' W 093°21'0 0.0
2017-Sep-10 17:01N 30°04' W 093°21'0 0.0
2017-Sep-10 16:31N 30°04' W 093°21'0 0.0
2017-Sep-10 16:00N 30°04' W 093°21'0 0.0
2017-Sep-10 15:30N 30°04' W 093°21'0 0.0
2017-Sep-10 15:00N 30°04' W 093°21'0 0.1
2017-Sep-10 14:01N 30°04' W 093°21'2 2.0
2017-Sep-10 12:50N 30°06' W 093°19'0 0.2
2017-Sep-10 12:30N 30°06' W 093°19'0 0.1
2017-Sep-10 11:57N 30°06' W 093°19'3 1.7
2017-Sep-10 10:17N 30°04' W 093°16'0 0.1
2017-Sep-10 10:01N 30°04' W 093°16'0 0.0
2017-Sep-10 09:30N 30°04' W 093°16'0 0.0
2017-Sep-10 09:00N 30°04' W 093°16'0 0.5
2017-Sep-10 08:30N 30°04' W 093°16'2 3.0
2017-Sep-10 07:58N 30°02' W 093°16'1 2.7
2017-Sep-10 07:30N 30°02' W 093°15'2 4.2
2017-Sep-10 07:00N 29°60' W 093°13'2 4.9
2017-Sep-10 06:30N 29°58' W 093°11'2 4.0
2017-Sep-10 06:00N 29°57' W 093°10'2 4.1
2017-Sep-10 05:29N 29°56' W 093°07'2 4.6
2017-Sep-10 05:00N 29°56' W 093°05'3 4.8
2017-Sep-10 04:28N 29°56' W 093°02'36 2.4
2017-Sep-09 13:02N 29°51' W 092°20'0 4.3
2017-Sep-09 13:00N 29°51' W 092°20'0 0.1
2017-Sep-09 12:30N 29°51' W 092°20'1 1.3
2017-Sep-09 12:01N 29°50' W 092°19'2 3.7
2017-Sep-09 11:30N 29°49' W 092°18'2 3.9
2017-Sep-09 10:59N 29°48' W 092°16'2 4.1
2017-Sep-09 10:30N 29°48' W 092°13'2 3.3
2017-Sep-09 09:59N 29°47' W 092°12'2 3.4
2017-Sep-09 09:30N 29°47' W 092°10'2 4.1
2017-Sep-09 08:59N 29°47' W 092°07'2 3.4
2017-Sep-09 08:30N 29°48' W 092°06'2 4.4
2017-Sep-09 07:59N 29°49' W 092°03'2 4.4
2017-Sep-09 07:31N 29°49' W 092°01'56 4.0
2017-Sep-08 17:18N 29°36' W 090°58'2 4.3
2017-Sep-08 16:53N 29°34' W 090°57'2 4.7
2017-Sep-08 16:27N 29°33' W 090°55'2 4.5
2017-Sep-08 15:57N 29°32' W 090°52'2 4.5
2017-Sep-08 15:30N 29°32' W 090°50'2 4.7
2017-Sep-08 15:00N 29°32' W 090°47'2 4.0
2017-Sep-08 14:30N 29°33' W 090°45'2 4.0
2017-Sep-08 14:01N 29°34' W 090°43'2 4.2
2017-Sep-08 13:30N 29°36' W 090°43'1 2.9
2017-Sep-08 13:01N 29°36' W 090°41'2 4.6
2017-Sep-08 12:31N 29°35' W 090°39'2 4.5
2017-Sep-08 12:00N 29°35' W 090°36'2 4.5
2017-Sep-08 11:30N 29°34' W 090°34'2 4.6
2017-Sep-08 11:00N 29°34' W 090°31'2 4.8
2017-Sep-08 10:30N 29°34' W 090°28'2 4.7
2017-Sep-08 10:00N 29°33' W 090°26'2 3.1
2017-Sep-08 09:30N 29°33' W 090°24'3 2.9
2017-Sep-08 08:27N 29°36' W 090°22'  

Dump ship's entire track history